createdAt,value
2022-08-27T05:00:17.282Z,84.16
2022-08-27T05:02:46.180Z,83.94
2022-08-27T05:05:16.267Z,83.75
2022-08-27T05:07:45.413Z,83.58
2022-08-27T05:10:14.742Z,83.38
2022-08-27T05:12:43.906Z,83.10
2022-08-27T05:15:13.574Z,82.84
2022-08-27T05:17:44.744Z,82.58
2022-08-27T05:20:15.149Z,82.37
2022-08-27T05:22:44.372Z,82.12
2022-08-27T05:25:17.916Z,81.90
2022-08-27T05:27:47.286Z,81.84
2022-08-27T05:30:17.046Z,81.65
2022-08-27T05:32:46.316Z,81.35
2022-08-27T05:35:15.916Z,81.08
2022-08-27T05:37:45.038Z,80.73
2022-08-27T05:40:14.079Z,80.62
2022-08-27T05:42:46.575Z,80.69
2022-08-27T05:45:20.178Z,80.58
2022-08-27T05:47:49.992Z,80.26
2022-08-27T05:50:23.724Z,79.87
2022-08-27T05:52:52.988Z,79.54
2022-08-27T05:55:22.710Z,79.53
2022-08-27T05:57:51.927Z,79.26
2022-08-27T06:00:39.842Z,78.83
2022-08-27T06:03:13.737Z,78.73
2022-08-27T06:05:43.283Z,78.14
2022-08-27T06:08:12.881Z,77.75
2022-08-27T06:10:45.755Z,77.64
2022-08-27T06:13:15.147Z,77.48
2022-08-27T06:15:44.322Z,76.94
2022-08-27T06:18:14.460Z,76.47
2022-08-27T06:20:43.667Z,76.08
2022-08-27T06:23:13.062Z,75.87
2022-08-27T06:25:42.529Z,75.56
2022-08-27T06:28:12.756Z,75.37
2022-08-27T06:30:41.948Z,75.52
2022-08-27T06:33:11.232Z,75.27
2022-08-27T06:35:40.603Z,75.30
2022-08-27T06:38:10.506Z,75.16
2022-08-27T06:40:42.939Z,74.43
2022-08-27T06:43:12.121Z,73.73
2022-08-27T06:45:41.486Z,73.32
2022-08-27T06:48:11.040Z,72.29
2022-08-27T06:50:42.266Z,72.29
2022-08-27T06:53:12.687Z,72.95
2022-08-27T06:55:48.825Z,72.18
2022-08-27T06:58:20.146Z,72.08
2022-08-27T07:00:49.576Z,71.85
2022-08-27T07:03:24.091Z,71.55
2022-08-27T07:05:53.395Z,71.19
2022-08-27T07:08:22.397Z,70.55
2022-08-27T07:10:56.343Z,70.79
2022-08-27T07:13:25.924Z,69.83
2022-08-27T07:15:55.342Z,70.18
2022-08-27T07:18:27.289Z,69.20
2022-08-27T07:20:57.399Z,69.36
2022-08-27T07:23:26.771Z,69.11
2022-08-27T07:25:55.998Z,69.04
2022-08-27T07:28:26.066Z,69.08
2022-08-27T07:30:55.392Z,68.61
2022-08-27T07:33:25.891Z,68.48
2022-08-27T07:35:55.519Z,68.84
2022-08-27T07:38:25.305Z,68.63
2022-08-27T07:40:54.920Z,68.33
2022-08-27T07:44:08.629Z,67.68
2022-08-27T07:46:47.409Z,68.23
2022-08-27T07:49:23.099Z,67.86
2022-08-27T07:51:53.190Z,67.90
2022-08-27T07:54:23.577Z,68.03
2022-08-27T07:56:56.376Z,67.45
2022-08-27T07:59:27.776Z,67.26
2022-08-27T08:01:57.961Z,66.36
2022-08-27T08:04:28.161Z,66.17
2022-08-27T08:06:57.595Z,65.60
2022-08-27T08:09:26.854Z,65.83
2022-08-27T08:11:55.922Z,64.58
2022-08-27T08:14:25.143Z,63.91
2022-08-27T08:16:54.550Z,63.44
2022-08-27T08:19:23.824Z,62.39
2022-08-27T08:21:59.476Z,62.47
2022-08-27T08:24:30.706Z,61.22
2022-08-27T08:27:02.779Z,62.01
2022-08-27T08:29:35.205Z,61.49
2022-08-27T08:32:07.322Z,61.61
2022-08-27T08:34:44.024Z,60.89
2022-08-27T08:37:15.149Z,61.00
2022-08-27T08:39:44.957Z,60.36
2022-08-27T08:42:42.336Z,59.21
2022-08-27T08:45:25.274Z,60.40
2022-08-27T08:48:18.637Z,60.87
2022-08-27T08:51:26.495Z,60.81
2022-08-27T08:54:10.172Z,60.79
2022-08-27T08:56:55.401Z,60.09
2022-08-27T08:59:40.902Z,60.35
2022-08-27T09:02:15.781Z,60.00
2022-08-27T09:04:45.997Z,60.22
2022-08-27T09:07:47.253Z,60.47
2022-08-27T09:10:40.538Z,60.36
2022-08-27T09:13:23.680Z,60.12
2022-08-27T09:15:59.528Z,59.68
2022-08-27T09:18:29.051Z,58.27
2022-08-27T09:21:39.722Z,58.17
2022-08-27T09:24:28.274Z,58.85
2022-08-27T09:26:57.984Z,59.02
2022-08-27T09:29:30.769Z,58.44
2022-08-27T09:32:12.661Z,58.45
2022-08-27T09:34:46.017Z,59.45
2022-08-27T09:37:21.304Z,59.17
2022-08-27T09:40:49.755Z,58.25
2022-08-27T09:43:30.302Z,56.37
2022-08-27T09:46:22.132Z,55.62
2022-08-27T09:48:54.096Z,55.08
2022-08-27T09:51:28.668Z,54.90
2022-08-27T09:54:03.191Z,55.40
2022-08-27T09:56:39.748Z,54.97
2022-08-27T09:59:23.503Z,55.18
2022-08-27T10:02:04.394Z,54.65
2022-08-27T10:04:52.021Z,55.57
2022-08-27T10:07:55.155Z,56.37
2022-08-27T10:11:01.458Z,57.24
2022-08-27T10:13:52.690Z,57.13
2022-08-27T10:17:10.109Z,56.56
2022-08-27T10:20:30.451Z,55.93
2022-08-27T10:23:06.355Z,56.86
2022-08-27T10:26:14.740Z,56.70
2022-08-27T10:29:34.166Z,54.99
2022-08-27T10:32:16.977Z,55.93
2022-08-27T10:35:48.014Z,56.49
2022-08-27T10:39:13.577Z,55.40
2022-08-27T10:42:08.855Z,55.41
2022-08-27T10:44:54.742Z,54.01
2022-08-27T10:47:48.722Z,54.47
2022-08-27T10:50:57.455Z,54.51
2022-08-27T10:53:50.719Z,54.83
2022-08-27T10:56:36.184Z,55.80
2022-08-27T11:00:03.184Z,55.46
2022-08-27T11:02:53.032Z,55.32
2022-08-27T11:05:40.399Z,55.64
2022-08-27T11:08:22.491Z,55.67
2022-08-27T11:15:09.891Z,55.46
2022-08-27T11:18:06.967Z,56.03
2022-08-27T11:21:00.589Z,57.15
2022-08-27T11:23:59.935Z,57.94
2022-08-27T11:26:33.894Z,58.73
2022-08-27T11:29:19.436Z,59.26
2022-08-27T11:32:20.575Z,58.70
2022-08-27T11:34:58.064Z,58.97
2022-08-27T11:37:58.504Z,58.63
2022-08-27T11:41:26.885Z,58.32
2022-08-27T11:44:01.577Z,58.00
2022-08-27T11:46:49.690Z,57.35
2022-08-27T11:49:42.036Z,57.31
2022-08-27T11:52:13.372Z,58.02
2022-08-27T11:54:53.627Z,57.82
2022-08-27T11:57:37.277Z,57.76
2022-08-27T12:00:37.262Z,57.58
2022-08-27T12:03:30.489Z,57.28
2022-08-27T12:06:20.829Z,57.19
2022-08-27T12:08:50.239Z,56.17
2022-08-27T12:11:40.821Z,55.01
2022-08-27T12:15:14.677Z,55.52
2022-08-27T12:18:50.604Z,55.29
2022-08-27T12:21:44.611Z,54.80
2022-08-27T12:24:31.687Z,52.67
2022-08-27T12:27:17.995Z,52.14
2022-08-27T12:30:00.204Z,52.09
2022-08-27T12:32:42.826Z,53.92
2022-08-27T12:35:54.654Z,53.20
2022-08-27T12:38:56.216Z,53.00
2022-08-27T12:41:44.653Z,50.11
2022-08-27T12:44:29.073Z,49.61
2022-08-27T12:47:16.817Z,50.53
2022-08-27T12:50:02.359Z,50.13
2022-08-27T12:53:04.203Z,50.13
2022-08-27T12:56:08.261Z,50.29
2022-08-27T12:59:10.676Z,48.01
2022-08-27T13:01:58.186Z,48.62
2022-08-27T13:04:34.367Z,49.77
2022-08-27T13:07:03.536Z,49.41
2022-08-27T13:09:38.207Z,49.67
2022-08-27T13:12:18.563Z,49.83
2022-08-27T13:14:48.954Z,49.33
2022-08-27T13:17:28.363Z,49.91
2022-08-27T13:20:01.820Z,50.11
2022-08-27T13:22:44.403Z,50.55
2022-08-27T13:25:31.827Z,51.46
2022-08-27T13:28:21.983Z,50.98
2022-08-27T13:30:52.538Z,50.70
2022-08-27T13:33:29.120Z,50.66
2022-08-27T13:36:01.416Z,50.97
2022-08-27T13:38:37.302Z,51.77
2022-08-27T13:41:37.107Z,51.25
2022-08-27T13:44:24.995Z,50.66
2022-08-27T13:47:24.419Z,50.70
2022-08-27T13:50:31.998Z,50.86
2022-08-27T13:53:41.343Z,51.20
2022-08-27T13:56:11.310Z,51.01
2022-08-27T13:58:40.785Z,51.00
2022-08-27T14:01:19.313Z,51.29
2022-08-27T14:04:07.814Z,51.18
2022-08-27T14:06:48.532Z,51.71
2022-08-27T14:09:31.539Z,52.12
2022-08-27T14:12:11.121Z,52.09
2022-08-27T14:14:42.961Z,52.40
2022-08-27T14:17:29.735Z,51.98
2022-08-27T14:20:05.818Z,52.42
2022-08-27T14:22:35.072Z,52.74
2022-08-27T14:25:05.287Z,51.96
2022-08-27T14:27:38.374Z,51.91
2022-08-27T14:30:16.336Z,52.49
2022-08-27T14:32:46.147Z,52.15
2022-08-27T14:35:15.786Z,52.09
2022-08-27T14:37:55.253Z,51.99
2022-08-27T14:40:24.611Z,52.28
2022-08-27T14:42:54.314Z,52.40
2022-08-27T14:45:24.101Z,52.47
2022-08-27T14:48:02.060Z,52.26
2022-08-27T14:50:31.924Z,52.72
2022-08-27T14:53:01.309Z,53.20
2022-08-27T14:55:32.012Z,53.35
2022-08-27T14:58:01.983Z,53.41
2022-08-27T15:00:31.578Z,53.41
2022-08-27T15:03:00.681Z,53.22
2022-08-27T15:05:29.929Z,53.16
2022-08-27T15:08:01.162Z,53.91
2022-08-27T15:10:32.407Z,53.60
2022-08-27T15:13:01.470Z,53.42
2022-08-27T15:15:30.759Z,53.84
2022-08-27T15:18:03.236Z,53.37
2022-08-27T15:20:32.957Z,53.32
2022-08-27T15:23:03.775Z,53.04
2022-08-27T15:25:33.085Z,52.45
2022-08-27T15:28:02.489Z,53.07
2022-08-27T15:30:38.488Z,53.02
2022-08-27T15:33:08.117Z,53.36
2022-08-27T15:35:37.352Z,52.31
2022-08-27T15:38:06.877Z,53.39
2022-08-27T15:40:37.363Z,53.01
2022-08-27T15:43:08.789Z,51.95
2022-08-27T15:45:38.302Z,52.00
2022-08-27T15:48:08.057Z,51.87
2022-08-27T15:50:38.172Z,51.86
2022-08-27T15:53:10.117Z,52.36
2022-08-27T15:55:44.869Z,52.09
2022-08-27T15:58:14.177Z,52.56
2022-08-27T16:00:44.546Z,52.70
2022-08-27T16:03:16.816Z,52.95
2022-08-27T16:05:47.896Z,53.69
2022-08-27T16:08:18.986Z,53.53
2022-08-27T16:10:48.051Z,53.41
2022-08-27T16:13:17.239Z,53.59
2022-08-27T16:15:46.244Z,53.75
2022-08-27T16:18:15.320Z,53.46
2022-08-27T16:20:44.462Z,53.15
2022-08-27T16:23:14.360Z,53.17
2022-08-27T16:25:43.440Z,53.28
2022-08-27T16:28:13.605Z,52.47
2022-08-27T16:30:43.629Z,52.41
2022-08-27T16:33:14.109Z,51.81
2022-08-27T16:35:43.519Z,51.20
2022-08-27T16:38:13.758Z,51.57
2022-08-27T16:40:52.410Z,52.54
2022-08-27T16:43:26.039Z,53.00
2022-08-27T16:45:58.335Z,52.82
2022-08-27T16:48:47.596Z,52.86
2022-08-27T16:51:26.001Z,52.59
2022-08-27T16:53:55.212Z,52.64
2022-08-27T16:56:26.290Z,52.59
2022-08-27T16:58:58.031Z,53.39
2022-08-27T17:11:03.715Z,58.94
2022-08-27T17:13:33.541Z,59.78
2022-08-27T17:16:03.990Z,60.44
2022-08-27T17:18:35.418Z,61.18
2022-08-27T17:21:05.720Z,62.08
2022-08-27T17:23:42.440Z,62.33
2022-08-27T17:26:14.477Z,61.81
2022-08-27T17:28:46.788Z,62.96
2022-08-27T17:31:28.741Z,63.35
2022-08-27T17:34:00.788Z,63.49
2022-08-27T17:36:32.120Z,63.87
2022-08-27T17:39:03.468Z,64.34
2022-08-27T17:41:38.656Z,64.85
2022-08-27T17:44:27.097Z,64.86
2022-08-27T17:47:00.805Z,64.58
2022-08-27T17:49:31.572Z,64.50
2022-08-27T17:52:11.598Z,64.78
2022-08-27T17:54:49.279Z,64.22
2022-08-27T17:57:26.059Z,63.41
2022-08-27T17:59:59.490Z,63.12
2022-08-27T18:02:43.355Z,63.15
2022-08-27T18:05:14.400Z,63.43
2022-08-27T18:07:46.940Z,63.63
2022-08-27T18:10:24.517Z,63.96
2022-08-27T18:12:56.451Z,64.12
2022-08-27T18:15:33.435Z,64.35
2022-08-27T18:18:03.169Z,64.50
2022-08-27T18:20:34.513Z,64.66
2022-08-27T18:23:10.690Z,65.12
2022-08-27T18:25:41.330Z,65.33
2022-08-27T18:28:12.330Z,65.54
2022-08-27T18:30:47.622Z,65.83
2022-08-27T18:33:16.894Z,65.80
2022-08-27T18:35:46.001Z,65.93
2022-08-27T18:38:15.121Z,66.38
2022-08-27T18:40:50.098Z,66.99
2022-08-27T18:43:24.648Z,67.82
2022-08-27T18:45:53.690Z,68.61
2022-08-27T18:48:24.254Z,69.58
2022-08-27T18:50:59.060Z,70.56
2022-08-27T18:53:34.033Z,71.02
2022-08-27T18:56:04.878Z,71.24
2022-08-27T18:58:34.506Z,71.60
2022-08-27T19:01:05.738Z,72.09
2022-08-27T19:03:39.842Z,72.24
2022-08-27T19:06:10.138Z,72.78
2022-08-27T19:08:42.474Z,73.46
2022-08-27T19:11:12.144Z,74.04
2022-08-27T19:13:43.419Z,74.01
2022-08-27T19:16:43.181Z,73.99
2022-08-27T19:19:14.954Z,73.96
2022-08-27T19:21:49.277Z,74.10
2022-08-27T19:24:22.817Z,74.26
2022-08-27T19:26:53.703Z,74.52
2022-08-27T19:29:22.935Z,74.80
2022-08-27T19:31:53.009Z,74.99
2022-08-27T19:34:23.571Z,75.14
2022-08-27T19:36:53.129Z,75.32
2022-08-27T19:39:22.193Z,75.56
2022-08-27T19:41:51.812Z,75.78
2022-08-27T19:44:21.033Z,76.04
2022-08-27T19:46:56.146Z,76.55
2022-08-27T19:49:25.037Z,76.88
2022-08-27T19:51:54.829Z,76.90
2022-08-27T19:54:25.153Z,77.23
2022-08-27T19:57:01.818Z,77.49
2022-08-27T19:59:31.227Z,77.63
2022-08-27T20:02:00.554Z,77.75
2022-08-27T20:04:33.496Z,77.88
2022-08-27T20:07:04.260Z,77.98
2022-08-27T20:09:33.967Z,78.10
2022-08-27T20:12:03.153Z,78.37
2022-08-27T20:14:32.289Z,78.59
2022-08-27T20:17:04.955Z,78.79
2022-08-27T20:19:36.531Z,78.92
2022-08-27T20:22:05.700Z,79.08
2022-08-27T20:24:34.779Z,79.30
2022-08-27T20:27:05.019Z,79.67
2022-08-27T20:29:34.933Z,79.93
2022-08-27T20:32:04.725Z,80.01
2022-08-27T20:34:35.572Z,80.19
2022-08-27T20:37:05.895Z,80.42
2022-08-27T20:39:35.104Z,80.65
2022-08-27T20:42:05.101Z,80.93
2022-08-27T20:44:34.125Z,81.13
2022-08-27T20:47:04.287Z,81.03
2022-08-27T20:49:35.743Z,81.22
2022-08-27T20:52:08.595Z,81.46
2022-08-27T20:54:42.813Z,81.47
2022-08-27T20:57:11.993Z,81.43
2022-08-27T21:00:00.897Z,81.68
2022-08-27T21:02:58.048Z,82.04
2022-08-27T21:05:27.491Z,82.07
2022-08-27T21:07:56.393Z,82.47
2022-08-27T21:10:25.489Z,82.50
2022-08-27T21:12:54.793Z,82.56
2022-08-27T21:15:23.970Z,82.63
2022-08-27T21:17:53.404Z,82.69
2022-08-27T21:20:23.034Z,82.67
2022-08-27T21:22:52.295Z,82.85
2022-08-27T21:25:24.925Z,83.04
2022-08-27T21:27:56.081Z,83.03
2022-08-27T21:30:26.819Z,83.11
2022-08-27T21:32:56.757Z,83.29
2022-08-27T21:35:30.400Z,83.46
2022-08-27T21:38:01.788Z,83.56
2022-08-27T21:40:31.498Z,83.62
2022-08-27T21:43:02.576Z,83.78
2022-08-27T21:45:32.187Z,83.85
2022-08-27T21:48:01.205Z,83.80
2022-08-27T21:50:30.395Z,83.90
2022-08-27T21:53:00.503Z,83.94
2022-08-27T21:55:29.797Z,84.06
2022-08-27T21:57:58.795Z,84.25
